Time;durP1;ratioP1;P1;durP2;ratioP2;P2;SDS_P1;SDS_P2;PMS_P1;PMS_P2;Temp;Humidity;BMP_temperature;BMP_pressure;BME280_temperature;BME280_humidity;BME280_pressure;Samples;Min_cycle;Max_cycle;Signal;HPM_P1;HPM_P2
2023/05/17 00:00:37;;;;;;;11.90;3.17;;;8.50;99.90;;;;;;4979090;28;20085;-68
2023/05/17 00:03:03;;;;;;;9.23;3.53;;;8.50;99.90;;;;;;4997418;28;20105;-68
2023/05/17 00:05:29;;;;;;;17.87;4.23;;;8.50;99.90;;;;;;4996736;28;20030;-68
2023/05/17 00:07:55;;;;;;;15.15;4.10;;;8.50;99.90;;;;;;5010479;28;20324;-69
2023/05/17 00:10:21;;;;;;;11.17;3.67;;;8.50;99.90;;;;;;5013500;28;20033;-68
2023/05/17 00:12:47;;;;;;;11.23;3.90;;;8.50;99.90;;;;;;5008872;28;20033;-68
2023/05/17 00:15:13;;;;;;;15.07;3.80;;;8.50;99.90;;;;;;5022972;28;20046;-68
2023/05/17 00:17:39;;;;;;;15.00;3.60;;;8.50;99.90;;;;;;4999997;28;20022;-68
2023/05/17 00:20:05;;;;;;;14.83;4.13;;;8.50;99.90;;;;;;4996204;28;20042;-68
2023/05/17 00:22:31;;;;;;;12.50;3.80;;;8.60;99.90;;;;;;4997072;28;20038;-68
2023/05/17 00:24:57;;;;;;;10.30;3.67;;;8.60;99.90;;;;;;5004046;28;20091;-72
2023/05/17 00:27:23;;;;;;;14.67;4.33;;;8.60;99.90;;;;;;5001831;28;20019;-69
2023/05/17 00:29:49;;;;;;;19.27;3.67;;;8.70;99.90;;;;;;4995667;28;20028;-68
2023/05/17 00:32:17;;;;;;;9.15;4.00;;;8.70;99.90;;;;;;4987289;28;20022;-68
2023/05/17 00:34:42;;;;;;;17.40;4.32;;;8.70;99.90;;;;;;4997776;28;20076;-68
2023/05/17 00:37:08;;;;;;;14.20;3.87;;;8.70;99.90;;;;;;5003367;28;20406;-68
2023/05/17 00:39:34;;;;;;;7.77;3.77;;;8.70;99.90;;;;;;4992874;28;20030;-68
2023/05/17 00:42:00;;;;;;;9.35;3.97;;;8.70;99.90;;;;;;5000018;28;20061;-68
2023/05/17 00:44:26;;;;;;;16.73;4.40;;;8.70;99.90;;;;;;5002897;28;20089;-68
2023/05/17 00:46:52;;;;;;;15.40;3.93;;;8.80;99.90;;;;;;5004311;28;20441;-68
2023/05/17 00:49:18;;;;;;;8.77;3.83;;;8.80;99.90;;;;;;4997920;28;20018;-68
2023/05/17 00:51:44;;;;;;;11.93;3.87;;;8.70;99.90;;;;;;4992968;28;20019;-84
2023/05/17 00:54:11;;;;;;;11.00;3.83;;;8.70;99.90;;;;;;4993283;28;20026;-68
2023/05/17 00:56:37;;;;;;;18.10;4.15;;;8.70;99.90;;;;;;4984635;28;20035;-77
2023/05/17 00:59:06;;;;;;;13.80;3.92;;;8.80;99.90;;;;;;4993929;28;20030;-68
2023/05/17 01:01:32;;;;;;;14.43;3.85;;;8.90;99.90;;;;;;4984424;28;20574;-69
2023/05/17 01:03:58;;;;;;;9.38;3.95;;;9.00;99.90;;;;;;4988035;28;20033;-81
2023/05/17 01:06:24;;;;;;;10.83;3.50;;;9.00;99.90;;;;;;4992104;28;20027;-69
2023/05/17 01:08:50;;;;;;;13.60;3.83;;;9.00;99.90;;;;;;4992759;28;20265;-68
2023/05/17 01:11:40;;;;;;;17.90;4.57;;;9.10;99.90;;;;;;4991287;28;20028;-68
2023/05/17 01:14:15;;;;;;;11.23;3.75;;;9.10;99.90;;;;;;4988465;28;20047;-68
2023/05/17 01:16:49;;;;;;;13.20;4.03;;;9.10;99.90;;;;;;4981026;28;20117;-69
2023/05/17 01:19:30;;;;;;;12.13;4.00;;;9.10;99.90;;;;;;4995661;28;20062;-68
2023/05/17 01:22:14;;;;;;;15.63;3.88;;;9.20;99.90;;;;;;4981760;28;20031;-68
2023/05/17 01:25:11;;;;;;;12.07;3.80;;;9.20;99.90;;;;;;4994953;28;20076;-68
2023/05/17 01:27:40;;;;;;;12.88;4.32;;;9.20;99.90;;;;;;4995820;28;20034;-80
2023/05/17 01:30:09;;;;;;;10.30;3.65;;;9.20;99.90;;;;;;4995429;28;20109;-69
2023/05/17 01:32:36;;;;;;;17.95;4.25;;;9.20;99.90;;;;;;4997288;28;20030;-69
2023/05/17 01:35:04;;;;;;;11.70;4.20;;;9.30;99.90;;;;;;4993203;28;20030;-83
2023/05/17 01:37:30;;;;;;;19.67;3.55;;;9.30;99.90;;;;;;4985681;28;20042;-68
2023/05/17 01:39:56;;;;;;;12.97;3.77;;;9.20;99.90;;;;;;4978762;28;20033;-82
2023/05/17 01:42:32;;;;;;;24.17;4.47;;;9.30;99.90;;;;;;4987032;28;20031;-68
2023/05/17 01:45:16;;;;;;;19.98;5.40;;;9.30;99.90;;;;;;4987391;28;20785;-68
2023/05/17 01:47:52;;;;;;;15.57;4.32;;;9.30;99.90;;;;;;4989991;28;20034;-76
2023/05/17 01:50:23;;;;;;;12.88;4.15;;;9.30;99.90;;;;;;4994050;28;20369;-69
2023/05/17 01:52:54;;;;;;;10.43;4.07;;;9.30;99.90;;;;;;4993527;28;20026;-68
2023/05/17 01:55:43;;;;;;;14.60;3.80;;;9.30;99.90;;;;;;4993832;28;20355;-83
2023/05/17 01:58:11;;;;;;;12.15;3.92;;;9.30;99.90;;;;;;4993290;28;20045;-68
2023/05/17 02:00:39;;;;;;;14.85;3.53;;;9.40;99.90;;;;;;4979561;28;20034;-69
2023/05/17 02:03:05;;;;;;;13.02;4.30;;;9.40;99.90;;;;;;4993248;28;20294;-69
2023/05/17 02:05:31;;;;;;;16.23;4.15;;;9.40;99.90;;;;;;4992812;28;20038;-68
2023/05/17 02:07:56;;;;;;;21.30;5.10;;;9.30;99.90;;;;;;4994806;28;20326;-68
2023/05/17 02:10:22;;;;;;;13.73;3.97;;;9.40;99.90;;;;;;4989968;28;20034;-68
2023/05/17 02:12:48;;;;;;;13.43;4.60;;;9.50;99.90;;;;;;4988257;28;20027;-68
2023/05/17 02:15:15;;;;;;;27.93;4.73;;;9.50;99.90;;;;;;4986836;28;20093;-68
2023/05/17 02:17:41;;;;;;;;;;;9.50;99.90;;;;;;4992809;28;20057;-69
2023/05/17 02:20:08;;;;;;;23.30;4.13;;;9.70;99.90;;;;;;4985090;28;19945;-67
2023/05/17 02:22:34;;;;;;;19.77;3.85;;;9.70;99.90;;;;;;4989342;28;20381;-68
2023/05/17 02:25:00;;;;;;;23.83;4.53;;;9.70;99.90;;;;;;4991173;28;20030;-68
2023/05/17 02:27:26;;;;;;;19.50;3.92;;;9.60;99.90;;;;;;4994345;28;20039;-80
2023/05/17 02:29:52;;;;;;;17.97;3.17;;;9.60;99.90;;;;;;4985051;28;20092;-80
2023/05/17 02:32:18;;;;;;;15.67;4.03;;;9.60;99.90;;;;;;4986956;28;20026;-68
2023/05/17 02:34:43;;;;;;;11.10;3.30;;;9.60;99.90;;;;;;4991066;28;20030;-68
2023/05/17 02:37:09;;;;;;;13.00;3.37;;;9.60;99.90;;;;;;4992942;28;20129;-68
2023/05/17 02:39:35;;;;;;;12.17;2.80;;;9.60;99.90;;;;;;4994774;28;20661;-66
2023/05/17 02:42:00;;;;;;;12.43;2.93;;;9.50;99.90;;;;;;4996766;28;20034;-67
2023/05/17 02:44:26;;;;;;;15.13;2.63;;;9.50;99.90;;;;;;4993892;28;20042;-75
2023/05/17 02:46:52;;;;;;;14.77;3.27;;;9.60;99.90;;;;;;4995279;28;20077;-68
2023/05/17 02:49:18;;;;;;;21.00;3.33;;;9.70;99.90;;;;;;4985805;28;20410;-68
2023/05/17 02:51:43;;;;;;;13.20;3.70;;;9.80;99.90;;;;;;4996045;28;20034;-83
2023/05/17 02:54:09;;;;;;;14.63;2.93;;;9.80;99.90;;;;;;4997646;28;20030;-68
2023/05/17 02:56:35;;;;;;;17.93;3.50;;;9.70;99.90;;;;;;4997676;28;20026;-66
2023/05/17 02:59:01;;;;;;;9.90;2.40;;;9.60;99.90;;;;;;4997121;28;20034;-66
2023/05/17 03:01:27;;;;;;;15.25;3.25;;;9.60;99.90;;;;;;5013517;28;20070;-66
2023/05/17 03:03:53;;;;;;;9.43;3.20;;;9.50;99.90;;;;;;4985749;28;20094;-84
2023/05/17 03:06:18;;;;;;;15.57;2.80;;;9.40;99.90;;;;;;4989923;28;20030;-66
2023/05/17 03:08:44;;;;;;;16.87;3.47;;;9.40;99.90;;;;;;4997873;28;20089;-67
2023/05/17 03:11:10;;;;;;;12.90;2.47;;;9.30;99.90;;;;;;4994475;28;20019;-80
2023/05/17 03:13:36;;;;;;;18.63;3.17;;;9.20;99.90;;;;;;4996962;28;20268;-66
2023/05/17 03:16:02;;;;;;;19.77;2.40;;;9.20;99.90;;;;;;4984370;28;20125;-83
2023/05/17 03:18:28;;;;;;;13.27;2.80;;;9.10;99.90;;;;;;5010128;28;20086;-67
2023/05/17 03:20:53;;;;;;;20.03;3.10;;;9.00;99.90;;;;;;4998177;28;20041;-91
2023/05/17 03:23:20;;;;;;;15.53;3.83;;;9.00;99.90;;;;;;4997539;28;20081;-66
2023/05/17 03:25:46;;;;;;;6.38;2.17;;;8.90;99.90;;;;;;4998060;28;20054;-85
2023/05/17 03:28:12;;;;;;;8.30;2.50;;;8.90;99.90;;;;;;4997184;28;20342;-66
2023/05/17 03:30:37;;;;;;;15.30;2.60;;;8.80;99.90;;;;;;4993971;28;20101;-66
2023/05/17 03:33:03;;;;;;;20.20;2.77;;;8.80;99.90;;;;;;4996971;28;20037;-67
2023/05/17 03:35:29;;;;;;;16.97;3.13;;;8.80;99.90;;;;;;4997363;28;20030;-67
2023/05/17 03:37:56;;;;;;;15.93;3.00;;;8.70;99.90;;;;;;4999230;28;20303;-68
2023/05/17 03:40:22;;;;;;;16.27;2.72;;;8.70;99.90;;;;;;4989613;28;20022;-68
2023/05/17 03:42:47;;;;;;;17.37;3.47;;;8.60;99.90;;;;;;4996281;28;20303;-78
2023/05/17 03:45:15;;;;;;;19.23;2.57;;;8.50;99.90;;;;;;4993296;28;20497;-67
2023/05/17 03:47:41;;;;;;;22.00;3.30;;;8.60;99.90;;;;;;4994856;28;20042;-68
2023/05/17 03:50:08;;;;;;;14.00;2.25;;;8.60;99.90;;;;;;4995044;28;20023;-68
2023/05/17 03:52:34;;;;;;;15.60;3.00;;;8.50;99.90;;;;;;5000640;28;20076;-68
2023/05/17 03:55:00;;;;;;;13.13;2.67;;;8.50;99.90;;;;;;4995169;28;20042;-68
2023/05/17 03:57:26;;;;;;;14.23;2.07;;;8.40;99.90;;;;;;4989412;28;20083;-69
2023/05/17 03:59:52;;;;;;;16.67;2.90;;;8.30;99.90;;;;;;4991304;28;20165;-69
2023/05/17 04:02:18;;;;;;;18.23;2.73;;;8.20;99.90;;;;;;4996342;28;20026;-68
2023/05/17 04:04:51;;;;;;;19.90;2.08;;;8.20;99.90;;;;;;4992328;28;20037;-69
2023/05/17 04:07:17;;;;;;;17.05;2.55;;;8.30;99.90;;;;;;4990744;28;20113;-68
2023/05/17 04:09:44;;;;;;;21.08;2.35;;;8.30;99.90;;;;;;4996173;28;20030;-81
2023/05/17 04:12:10;;;;;;;17.50;2.50;;;8.30;99.90;;;;;;4989552;28;20118;-68
2023/05/17 04:14:40;;;;;;;18.80;2.67;;;8.30;99.90;;;;;;4990126;28;20038;-80
2023/05/17 04:17:06;;;;;;;19.52;2.38;;;8.20;99.90;;;;;;4987050;28;20038;-68
2023/05/17 04:19:32;;;;;;;10.87;2.20;;;8.20;99.90;;;;;;4990394;28;20375;-68
2023/05/17 04:21:58;;;;;;;11.27;2.15;;;8.20;99.90;;;;;;5004960;28;20026;-68
2023/05/17 04:24:24;;;;;;;18.00;2.67;;;8.20;99.90;;;;;;4985585;28;20292;-68
2023/05/17 04:26:49;;;;;;;9.90;2.07;;;8.20;99.90;;;;;;4984622;28;20018;-68
2023/05/17 04:29:15;;;;;;;12.53;2.20;;;8.10;99.90;;;;;;4984497;28;20027;-68
2023/05/17 04:31:41;;;;;;;14.67;2.37;;;8.10;99.90;;;;;;4989675;28;20026;-69
2023/05/17 04:34:08;;;;;;;10.97;2.77;;;8.10;99.90;;;;;;4992875;28;20054;-68
2023/05/17 04:36:34;;;;;;;13.65;2.05;;;8.00;99.90;;;;;;4984664;28;20061;-68
2023/05/17 04:39:02;;;;;;;8.00;1.73;;;8.00;99.90;;;;;;5000059;28;20074;-69
2023/05/17 04:41:28;;;;;;;10.95;2.85;;;8.10;99.90;;;;;;4983026;28;20022;-68
2023/05/17 04:43:53;;;;;;;15.87;2.47;;;8.10;99.90;;;;;;4987439;28;20077;-68
2023/05/17 04:46:19;;;;;;;17.43;2.90;;;8.10;99.90;;;;;;5004067;28;20077;-68
2023/05/17 04:48:45;;;;;;;12.23;2.00;;;8.10;99.90;;;;;;5015966;28;20129;-68
2023/05/17 04:51:11;;;;;;;16.42;2.65;;;8.10;99.90;;;;;;4997121;28;20022;-68
2023/05/17 04:53:37;;;;;;;18.27;2.63;;;8.20;99.90;;;;;;4997022;28;20040;-68
2023/05/17 04:56:03;;;;;;;17.00;2.87;;;8.30;99.90;;;;;;4994807;28;20053;-68
2023/05/17 04:58:29;;;;;;;16.13;2.90;;;8.40;99.90;;;;;;4993592;28;20018;-68
2023/05/17 05:00:55;;;;;;;16.17;2.17;;;8.50;99.90;;;;;;5007672;28;20027;-68
2023/05/17 05:03:22;;;;;;;10.60;2.73;;;8.60;99.90;;;;;;4994511;28;20038;-68
2023/05/17 05:05:48;;;;;;;18.27;2.70;;;8.70;99.90;;;;;;4996304;28;20030;-69
2023/05/17 05:08:13;;;;;;;20.53;3.07;;;8.70;99.90;;;;;;4992271;28;20096;-68
2023/05/17 05:10:39;;;;;;;13.37;2.40;;;8.90;99.90;;;;;;4999763;28;20023;-68
2023/05/17 05:13:05;;;;;;;13.07;2.87;;;8.90;99.90;;;;;;5000339;28;20033;-68
2023/05/17 05:15:31;;;;;;;23.10;3.00;;;9.00;99.90;;;;;;5010090;28;20050;-68
2023/05/17 05:17:57;;;;;;;15.55;2.35;;;9.10;99.90;;;;;;4996643;28;20037;-68
2023/05/17 05:20:23;;;;;;;13.87;2.33;;;9.10;99.90;;;;;;4994964;28;20038;-68
2023/05/17 05:22:49;;;;;;;14.57;2.50;;;9.20;99.90;;;;;;4988726;28;20035;-78
2023/05/17 05:25:15;;;;;;;14.03;3.27;;;9.30;99.90;;;;;;4980823;28;20027;-67
2023/05/17 05:27:41;;;;;;;9.43;2.65;;;9.40;99.90;;;;;;4989016;28;20022;-67
2023/05/17 05:30:08;;;;;;;11.20;2.43;;;9.40;99.90;;;;;;4983229;28;20374;-81
2023/05/17 05:32:36;;;;;;;20.30;2.78;;;9.50;99.90;;;;;;4986864;28;20038;-67
2023/05/17 05:35:04;;;;;;;16.92;2.03;;;9.50;99.90;;;;;;4987806;28;20088;-67
2023/05/17 05:37:33;;;;;;;15.95;2.35;;;9.60;99.90;;;;;;4992964;28;20433;-67
2023/05/17 05:39:59;;;;;;;20.33;2.17;;;9.60;99.90;;;;;;4987023;28;20085;-67
2023/05/17 05:42:26;;;;;;;14.40;2.10;;;9.70;99.90;;;;;;4989550;28;20026;-67
2023/05/17 05:44:52;;;;;;;16.90;1.90;;;9.70;99.90;;;;;;4989366;28;20035;-67
2023/05/17 05:47:18;;;;;;;12.33;2.97;;;9.90;99.90;;;;;;4984145;28;20029;-68
2023/05/17 05:49:44;;;;;;;5.77;2.27;;;10.00;99.90;;;;;;4980373;28;20027;-67
2023/05/17 05:52:10;;;;;;;15.05;2.28;;;10.10;99.90;;;;;;4984353;28;20034;-67
2023/05/17 05:54:36;;;;;;;15.13;2.57;;;10.00;99.90;;;;;;4984838;28;20030;-66
2023/05/17 05:57:02;;;;;;;6.80;1.63;;;10.00;99.90;;;;;;4995141;28;20405;-67
2023/05/17 05:59:28;;;;;;;18.70;2.60;;;10.00;99.90;;;;;;4997184;28;20038;-67
2023/05/17 06:01:55;;;;;;;12.87;2.53;;;10.20;99.90;;;;;;4986426;28;20034;-67
2023/05/17 06:04:22;;;;;;;15.60;2.58;;;10.20;99.90;;;;;;4986012;28;20101;-67
2023/05/17 06:06:48;;;;;;;10.00;1.88;;;10.20;99.90;;;;;;4987437;28;20089;-69
2023/05/17 06:09:14;;;;;;;19.20;2.20;;;10.10;99.90;;;;;;4986413;28;20429;-66
2023/05/17 06:11:39;;;;;;;9.57;1.70;;;10.10;99.90;;;;;;4988149;28;20022;-67
2023/05/17 06:14:05;;;;;;;15.37;1.60;;;10.10;99.90;;;;;;4989558;28;20127;-68
2023/05/17 06:16:31;;;;;;;12.80;2.20;;;10.20;99.90;;;;;;4992358;28;20057;-67
2023/05/17 06:18:58;;;;;;;13.47;1.43;;;10.30;99.90;;;;;;4996421;28;20030;-66
2023/05/17 06:21:24;;;;;;;7.68;1.77;;;10.40;99.90;;;;;;4988458;28;20061;-67
2023/05/17 06:23:52;;;;;;;15.45;2.47;;;10.40;99.90;;;;;;4999886;28;20085;-83
2023/05/17 06:26:18;;;;;;;14.50;2.67;;;10.30;99.90;;;;;;4985788;28;20027;-67
2023/05/17 06:28:46;;;;;;;13.87;1.93;;;10.30;99.90;;;;;;4987878;28;20042;-68
2023/05/17 06:31:12;;;;;;;10.70;1.88;;;10.30;99.90;;;;;;4991516;28;20022;-68
2023/05/17 06:33:38;;;;;;;10.10;1.75;;;10.40;99.90;;;;;;4994681;28;20022;-68
2023/05/17 06:36:04;;;;;;;9.43;1.57;;;10.50;99.90;;;;;;4996355;28;20038;-67
2023/05/17 06:38:29;;;;;;;11.87;1.63;;;10.60;99.90;;;;;;4990485;28;20023;-67
2023/05/17 06:40:57;;;;;;;12.50;2.17;;;10.70;99.90;;;;;;4992745;28;20062;-67
2023/05/17 06:43:23;;;;;;;10.27;1.80;;;10.70;99.90;;;;;;5008390;28;20034;-68
2023/05/17 06:45:49;;;;;;;8.80;1.45;;;10.70;99.90;;;;;;4988266;28;20030;-67
2023/05/17 06:48:15;;;;;;;4.33;1.10;;;10.70;99.90;;;;;;4990154;28;20073;-68
2023/05/17 06:50:41;;;;;;;15.18;1.95;;;10.70;99.90;;;;;;4993147;28;20044;-68
2023/05/17 06:53:07;;;;;;;8.37;1.23;;;10.70;99.90;;;;;;4982729;28;20039;-66
2023/05/17 06:55:32;;;;;;;4.53;1.37;;;10.80;99.90;;;;;;4991737;28;20030;-66
2023/05/17 06:57:59;;;;;;;9.70;1.40;;;10.70;99.90;;;;;;4988153;28;20034;-66
2023/05/17 07:00:24;;;;;;;14.93;1.42;;;10.50;99.90;;;;;;4988112;28;20042;-67
2023/05/17 07:02:51;;;;;;;9.80;1.20;;;10.40;99.90;;;;;;4987342;28;20052;-67
2023/05/17 07:05:16;;;;;;;7.32;1.48;;;10.30;99.90;;;;;;4987818;28;20023;-66
2023/05/17 07:07:42;;;;;;;6.97;1.50;;;10.30;99.90;;;;;;4996229;28;20042;-68
2023/05/17 07:10:08;;;;;;;7.67;1.63;;;10.40;99.90;;;;;;4983919;28;20037;-67
2023/05/17 07:12:33;;;;;;;16.17;1.80;;;10.50;99.90;;;;;;4993773;28;20077;-66
2023/05/17 07:14:59;;;;;;;11.10;1.53;;;10.60;99.90;;;;;;4993180;28;20063;-67
2023/05/17 07:17:25;;;;;;;4.23;1.53;;;10.70;99.90;;;;;;4999451;28;20130;-67
2023/05/17 07:19:51;;;;;;;4.83;1.47;;;10.80;99.90;;;;;;5000712;28;20436;-68
2023/05/17 07:22:17;;;;;;;10.10;1.30;;;10.90;99.90;;;;;;5005448;28;20041;-66
2023/05/17 07:24:44;;;;;;;9.85;1.83;;;10.80;99.90;;;;;;4997963;28;20038;-67
2023/05/17 07:27:10;;;;;;;;;;;10.80;99.90;;;;;;4991217;28;20321;-67
2023/05/17 07:29:35;;;;;;;5.43;0.93;;;10.90;99.90;;;;;;4998802;28;20060;-66
2023/05/17 07:32:01;;;;;;;10.43;1.57;;;10.90;99.90;;;;;;4998818;28;20299;-67
2023/05/17 07:34:27;;;;;;;5.90;1.30;;;11.00;99.90;;;;;;4999128;28;20040;-68
2023/05/17 07:36:52;;;;;;;5.10;1.37;;;10.90;99.90;;;;;;5007109;28;20107;-67
2023/05/17 07:39:18;;;;;;;9.00;1.73;;;10.70;99.90;;;;;;4987639;28;20022;-68
2023/05/17 07:41:44;;;;;;;6.93;0.93;;;10.90;99.90;;;;;;5001044;28;20029;-67
2023/05/17 07:44:10;;;;;;;6.43;1.27;;;10.80;99.90;;;;;;4987717;28;20038;-67
2023/05/17 07:46:38;;;;;;;9.57;1.50;;;10.80;99.90;;;;;;5012860;28;20018;-68
2023/05/17 07:49:04;;;;;;;11.57;1.90;;;10.90;99.90;;;;;;4990001;28;20030;-68
2023/05/17 07:51:30;;;;;;;8.77;1.40;;;11.10;99.90;;;;;;4991562;28;20583;-67
2023/05/17 07:53:56;;;;;;;8.07;0.75;;;11.10;99.90;;;;;;4997819;28;20035;-67
2023/05/17 07:56:22;;;;;;;7.57;1.33;;;11.30;99.90;;;;;;4997082;28;20034;-67
2023/05/17 07:58:47;;;;;;;6.87;1.27;;;11.30;99.90;;;;;;4993792;28;20032;-67
2023/05/17 08:01:13;;;;;;;13.00;1.27;;;11.40;99.90;;;;;;4993277;28;20433;-69
2023/05/17 08:03:46;;;;;;;5.83;1.23;;;11.50;99.90;;;;;;4990443;28;20033;-67
2023/05/17 08:06:15;;;;;;;6.55;1.13;;;11.70;99.90;;;;;;5001572;28;20037;-67
2023/05/17 08:08:41;;;;;;;6.90;0.82;;;11.60;99.90;;;;;;4992026;28;20031;-67
2023/05/17 08:11:08;;;;;;;5.55;0.90;;;11.70;99.90;;;;;;4991409;28;20041;-68
2023/05/17 08:13:34;;;;;;;;;;;11.80;99.90;;;;;;4995492;28;20314;-67
2023/05/17 08:16:02;;;;;;;9.93;1.23;;;12.00;99.90;;;;;;4991619;28;19918;-67
2023/05/17 08:18:31;;;;;;;2.60;1.23;;;11.80;99.90;;;;;;4992381;28;20034;-68
2023/05/17 08:20:57;;;;;;;8.38;0.95;;;11.80;99.90;;;;;;4999245;28;20109;-67
2023/05/17 08:23:23;;;;;;;9.03;2.07;;;12.00;99.90;;;;;;4994572;28;20141;-68
2023/05/17 08:25:48;;;;;;;12.17;1.33;;;12.00;99.90;;;;;;4993604;28;20410;-69
2023/05/17 08:28:14;;;;;;;6.47;1.27;;;12.10;99.90;;;;;;4994562;28;20027;-68
2023/05/17 08:30:40;;;;;;;3.97;1.30;;;12.10;99.90;;;;;;5002383;28;20029;-68
2023/05/17 08:33:08;;;;;;;9.40;1.48;;;12.20;99.90;;;;;;4993996;28;20426;-68
2023/05/17 08:35:34;;;;;;;4.93;0.82;;;12.20;99.90;;;;;;5001933;28;20030;-68
2023/05/17 08:38:00;;;;;;;11.60;1.65;;;12.00;99.90;;;;;;5009070;28;20087;-68
2023/05/17 08:40:27;;;;;;;7.23;1.20;;;11.90;99.90;;;;;;5001428;28;20125;-68
2023/05/17 08:42:53;;;;;;;5.13;1.10;;;12.00;99.90;;;;;;5007662;28;20325;-67
2023/05/17 08:45:19;;;;;;;9.13;1.77;;;11.80;99.90;;;;;;5004779;28;20034;-68
2023/05/17 08:47:47;;;;;;;6.90;1.17;;;12.00;99.90;;;;;;5004716;28;20413;-68
2023/05/17 08:50:14;;;;;;;8.85;1.13;;;12.10;99.90;;;;;;5004458;28;20022;-68
2023/05/17 08:52:43;;;;;;;4.47;0.85;;;12.20;99.90;;;;;;5000618;28;20318;-68
2023/05/17 08:55:10;;;;;;;11.80;1.75;;;12.00;99.90;;;;;;4991524;28;20169;-67
2023/05/17 08:57:37;;;;;;;4.82;1.08;;;11.90;99.90;;;;;;4987067;28;20022;-68
2023/05/17 09:00:12;;;;;;;5.65;0.90;;;12.20;99.90;;;;;;4990321;28;20421;-68
2023/05/17 09:02:39;;;;;;;7.82;1.17;;;12.40;99.90;;;;;;4994650;28;20168;-70
2023/05/17 09:05:05;;;;;;;4.32;1.05;;;12.20;99.90;;;;;;5000009;28;20041;-68
2023/05/17 09:07:31;;;;;;;7.55;0.85;;;12.10;99.90;;;;;;5005671;28;20025;-67
2023/05/17 09:09:57;;;;;;;7.05;1.40;;;12.20;99.90;;;;;;4986914;28;20082;-68
2023/05/17 09:12:23;;;;;;;10.77;1.67;;;12.40;99.90;;;;;;5006249;28;20034;-68
2023/05/17 09:14:49;;;;;;;6.03;1.30;;;12.40;99.90;;;;;;4991512;28;20109;-68
2023/05/17 09:17:20;;;;;;;5.57;1.23;;;12.40;99.90;;;;;;4989288;28;20113;-67
2023/05/17 09:19:47;;;;;;;15.63;1.20;;;12.50;99.90;;;;;;4987130;28;20061;-68
2023/05/17 09:22:18;;;;;;;;;;;12.50;99.90;;;;;;4988840;28;20050;-68
2023/05/17 09:24:44;;;;;;;7.97;0.88;;;12.50;99.90;;;;;;4986321;28;19917;-68
2023/05/17 09:27:17;;;;;;;3.17;1.10;;;12.30;99.90;;;;;;5002807;28;20041;-68
2023/05/17 09:29:46;;;;;;;10.77;1.48;;;12.10;99.90;;;;;;4982792;28;20043;-68
2023/05/17 09:32:19;;;;;;;7.07;1.63;;;12.30;99.90;;;;;;4989331;28;20414;-68
2023/05/17 09:34:45;;;;;;;10.45;1.27;;;12.10;99.90;;;;;;4999140;28;20033;-68
2023/05/17 09:37:13;;;;;;;4.93;1.10;;;12.30;99.90;;;;;;4991956;28;20321;-67
2023/05/17 09:39:40;;;;;;;6.63;1.40;;;12.50;99.90;;;;;;4999467;28;20109;-68
2023/05/17 09:42:06;;;;;;;4.47;0.90;;;12.50;99.90;;;;;;4994834;28;20144;-68
2023/05/17 09:44:52;;;;;;;4.80;1.80;;;12.60;99.90;;;;;;4987490;28;20046;-67
2023/05/17 09:47:29;;;;;;;5.63;0.95;;;12.70;99.90;;;;;;5005751;28;20033;-67
2023/05/17 09:49:57;;;;;;;2.80;1.05;;;12.80;99.90;;;;;;5009216;28;20034;-67
2023/05/17 09:52:23;;;;;;;11.77;1.60;;;12.80;99.90;;;;;;5003791;28;20061;-68
2023/05/17 09:54:56;;;;;;;7.28;1.50;;;12.90;99.90;;;;;;4995064;28;20058;-68
2023/05/17 09:57:24;;;;;;;7.45;1.25;;;12.80;99.90;;;;;;4998006;28;20054;-68
2023/05/17 09:59:50;;;;;;;5.28;0.90;;;12.90;99.90;;;;;;5005041;28;20022;-69
2023/05/17 10:02:21;;;;;;;9.23;1.75;;;12.90;99.90;;;;;;4998390;28;20323;-68
2023/05/17 10:04:52;;;;;;;4.63;1.02;;;12.80;99.90;;;;;;4976486;28;20038;-68
2023/05/17 10:07:20;;;;;;;6.38;1.33;;;12.70;99.90;;;;;;4988087;28;20349;-68
2023/05/17 10:09:50;;;;;;;4.00;1.13;;;12.70;99.90;;;;;;4993743;28;20507;-67
2023/05/17 10:12:18;;;;;;;8.65;1.13;;;12.60;99.90;;;;;;4995210;28;20030;-68
2023/05/17 10:14:44;;;;;;;12.00;1.00;;;12.80;99.90;;;;;;5005438;28;20430;-78
2023/05/17 10:17:11;;;;;;;3.40;1.27;;;12.80;99.90;;;;;;4988111;28;20363;-68
2023/05/17 10:19:37;;;;;;;2.97;0.95;;;12.60;99.90;;;;;;4995242;28;20058;-67
2023/05/17 10:22:05;;;;;;;3.45;0.65;;;12.50;99.90;;;;;;4989673;28;20058;-76
2023/05/17 10:24:31;;;;;;;5.22;1.38;;;12.50;99.90;;;;;;4992870;28;20417;-68
2023/05/17 10:26:58;;;;;;;6.10;1.43;;;12.50;99.90;;;;;;4987837;28;20114;-68
2023/05/17 10:29:24;;;;;;;3.80;0.95;;;12.60;99.90;;;;;;5000270;28;20263;-69
2023/05/17 10:31:50;;;;;;;5.47;1.30;;;12.60;99.90;;;;;;4995564;28;20039;-77
2023/05/17 10:34:17;;;;;;;8.77;1.33;;;12.80;99.90;;;;;;4994544;28;20101;-79
2023/05/17 10:36:44;;;;;;;11.77;1.40;;;12.80;99.90;;;;;;4995889;28;20322;-67
2023/05/17 10:39:10;;;;;;;10.35;1.63;;;12.80;99.90;;;;;;4998088;28;20026;-67
2023/05/17 10:41:40;;;;;;;8.65;1.45;;;12.90;99.90;;;;;;4988763;28;20377;-76
2023/05/17 10:44:08;;;;;;;11.85;2.03;;;13.00;99.90;;;;;;4983732;28;20030;-68
2023/05/17 10:46:35;;;;;;;8.63;1.58;;;12.90;99.90;;;;;;4989826;28;20022;-67
2023/05/17 10:49:01;;;;;;;14.85;1.40;;;12.90;99.90;;;;;;4988441;28;20034;-68
2023/05/17 10:51:36;;;;;;;4.47;0.90;;;12.80;99.90;;;;;;5000191;28;20663;-68
2023/05/17 10:54:05;;;;;;;9.30;1.40;;;12.80;99.90;;;;;;4996868;28;20422;-68
2023/05/17 10:56:31;;;;;;;8.02;2.17;;;13.00;99.90;;;;;;4994035;28;20109;-76
2023/05/17 10:59:23;;;;;;;2.30;1.23;;;12.90;99.90;;;;;;4990840;28;20030;-67
2023/05/17 11:01:53;;;;;;;8.25;1.13;;;12.90;99.90;;;;;;4990685;28;20030;-69
2023/05/17 11:04:22;;;;;;;9.52;1.88;;;12.90;99.90;;;;;;4989889;28;20034;-68
2023/05/17 11:06:48;;;;;;;8.95;1.30;;;13.00;99.90;;;;;;5005226;28;20023;-68
2023/05/17 11:09:17;;;;;;;7.37;1.87;;;13.00;99.90;;;;;;4993204;28;20037;-79
2023/05/17 11:12:02;;;;;;;6.65;0.93;;;13.00;99.90;;;;;;5001710;28;20030;-70
2023/05/17 11:14:42;;;;;;;6.55;0.95;;;13.10;99.90;;;;;;4996971;28;20108;-68
2023/05/17 11:17:19;;;;;;;12.70;1.52;;;13.20;99.90;;;;;;4993390;28;20116;-70
2023/05/17 11:19:49;;;;;;;8.00;1.90;;;13.10;99.90;;;;;;5001062;28;20053;-68
2023/05/17 11:22:16;;;;;;;2.83;1.45;;;13.00;99.90;;;;;;4998313;28;20032;-68
2023/05/17 11:24:44;;;;;;;9.05;1.17;;;13.10;99.90;;;;;;5004659;28;20101;-68
2023/05/17 11:27:12;;;;;;;4.75;1.15;;;13.00;99.90;;;;;;4996131;28;20034;-68
2023/05/17 11:29:41;;;;;;;2.55;1.42;;;13.10;99.90;;;;;;5002124;28;20022;-69
2023/05/17 11:32:09;;;;;;;11.52;1.63;;;13.00;99.90;;;;;;4998034;28;20034;-68
2023/05/17 11:34:35;;;;;;;8.07;1.77;;;12.90;99.90;;;;;;4996882;28;20030;-69
2023/05/17 11:37:03;;;;;;;9.43;1.50;;;13.10;99.90;;;;;;5001200;28;20100;-69
2023/05/17 11:39:29;;;;;;;4.10;1.20;;;13.10;99.90;;;;;;4995532;28;20030;-68
2023/05/17 11:41:56;;;;;;;8.27;1.55;;;13.10;99.90;;;;;;4998086;28;20034;-68
2023/05/17 11:44:28;;;;;;;;;;;13.20;99.90;;;;;;4988923;28;20417;-70
2023/05/17 11:47:05;;;;;;;10.35;1.40;;;13.20;99.90;;;;;;5004346;28;20280;-68
2023/05/17 11:49:36;;;;;;;9.10;1.52;;;13.20;99.90;;;;;;5009968;28;20050;-68
2023/05/17 11:52:06;;;;;;;6.55;1.33;;;13.10;99.90;;;;;;5001356;28;20094;-69
2023/05/17 11:54:33;;;;;;;11.68;1.88;;;13.20;99.90;;;;;;5000811;28;20018;-69
2023/05/17 11:57:01;;;;;;;8.18;1.75;;;13.00;99.90;;;;;;5010453;28;20096;-68
2023/05/17 11:59:27;;;;;;;6.68;1.52;;;13.10;99.90;;;;;;5014018;28;20038;-77
2023/05/17 12:01:53;;;;;;;6.93;1.43;;;13.10;99.90;;;;;;4997071;28;20027;-68
2023/05/17 12:04:26;;;;;;;4.97;1.10;;;13.20;99.90;;;;;;4991108;28;20062;-68
2023/05/17 12:06:57;;;;;;;3.72;1.02;;;13.30;99.90;;;;;;4994752;28;20046;-75
2023/05/17 12:09:23;;;;;;;6.28;1.40;;;13.40;99.90;;;;;;4994661;28;20373;-69
2023/05/17 12:11:48;;;;;;;7.68;1.40;;;13.40;99.90;;;;;;4994157;28;20023;-68
2023/05/17 12:14:16;;;;;;;7.40;1.47;;;13.40;99.90;;;;;;4993475;28;20061;-70
2023/05/17 12:16:43;;;;;;;8.40;1.52;;;13.20;99.90;;;;;;4993589;28;20054;-68
2023/05/17 12:19:20;;;;;;;5.05;1.17;;;13.10;99.90;;;;;;4989062;28;20030;-68
2023/05/17 12:21:46;;;;;;;7.32;1.13;;;13.00;99.90;;;;;;5001028;28;20041;-78
2023/05/17 12:24:12;;;;;;;10.82;1.55;;;12.90;99.90;;;;;;5000987;28;20113;-69
2023/05/17 12:26:46;;;;;;;13.30;1.67;;;12.90;99.90;;;;;;4993569;28;20098;-68
2023/05/17 12:29:13;;;;;;;11.95;1.20;;;12.90;99.90;;;;;;5001493;28;20334;-67
2023/05/17 12:31:51;;;;;;;11.07;2.30;;;13.10;99.90;;;;;;4995944;28;20027;-67
2023/05/17 12:34:18;;;;;;;7.78;1.63;;;13.00;99.90;;;;;;4995097;28;20424;-68
2023/05/17 12:36:44;;;;;;;10.63;2.00;;;13.00;99.90;;;;;;5005638;28;20080;-77
2023/05/17 12:39:11;;;;;;;13.88;1.83;;;13.20;99.90;;;;;;4996563;28;20753;-69
2023/05/17 12:41:38;;;;;;;4.07;1.38;;;13.20;99.90;;;;;;5000645;28;20030;-67
2023/05/17 12:44:06;;;;;;;;;;;13.30;99.90;;;;;;5011439;28;20079;-68
2023/05/17 12:46:31;;;;;;;6.10;1.50;;;13.30;99.90;;;;;;4997815;28;20305;-67
2023/05/17 12:49:04;;;;;;;5.23;0.90;;;13.30;99.90;;;;;;5004039;28;20030;-67